createdAt,value
2019-06-27T00:02:13.478Z,22.90
2019-06-27T00:04:43.095Z,23.00
2019-06-27T00:07:12.732Z,23.00
2019-06-27T00:09:42.108Z,22.90
2019-06-27T00:12:11.468Z,22.80
2019-06-27T00:14:40.836Z,22.80
2019-06-27T00:17:10.213Z,22.80
2019-06-27T00:19:39.594Z,22.70
2019-06-27T00:22:08.968Z,22.60
2019-06-27T00:24:38.334Z,22.50
2019-06-27T00:27:07.693Z,22.50
2019-06-27T00:29:37.078Z,22.60
2019-06-27T00:32:06.426Z,22.70
2019-06-27T00:34:35.789Z,22.80
2019-06-27T00:37:05.140Z,22.60
2019-06-27T00:39:34.516Z,22.50
2019-06-27T00:42:03.871Z,22.40
2019-06-27T00:44:33.237Z,22.40
2019-06-27T00:47:02.598Z,22.30
2019-06-27T00:49:31.969Z,22.30
2019-06-27T00:52:01.325Z,22.40
2019-06-27T00:54:30.696Z,22.50
2019-06-27T00:57:13.407Z,22.50
2019-06-27T00:59:31.073Z,22.50
2019-06-27T01:02:00.440Z,22.40
2019-06-27T01:04:29.836Z,22.30
2019-06-27T01:06:59.189Z,22.10
2019-06-27T01:09:28.565Z,21.90
2019-06-27T01:11:57.921Z,21.80
2019-06-27T01:14:27.308Z,21.80
2019-06-27T01:16:56.676Z,21.80
2019-06-27T01:19:26.053Z,21.90
2019-06-27T01:21:55.414Z,21.90
2019-06-27T01:24:24.789Z,22.00
2019-06-27T01:26:54.144Z,22.00
2019-06-27T01:29:23.521Z,22.00
2019-06-27T01:31:52.875Z,21.90
2019-06-27T01:34:22.240Z,21.90
2019-06-27T01:36:51.591Z,21.90
2019-06-27T01:39:20.993Z,21.80
2019-06-27T01:41:50.403Z,21.70
2019-06-27T01:44:37.360Z,21.50
2019-06-27T01:47:07.522Z,21.40
2019-06-27T01:49:36.892Z,21.20
2019-06-27T01:52:06.278Z,21.00
2019-06-27T01:54:35.633Z,20.90
2019-06-27T01:57:04.985Z,20.80
2019-06-27T01:59:34.352Z,20.90
2019-06-27T02:02:03.720Z,20.80
2019-06-27T02:04:33.092Z,20.90
2019-06-27T02:07:02.450Z,20.90
2019-06-27T02:09:33.553Z,20.90
2019-06-27T02:12:02.859Z,21.00
2019-06-27T02:14:32.213Z,21.00
2019-06-27T02:17:01.584Z,21.10
2019-06-27T02:19:30.964Z,21.20
2019-06-27T02:22:00.311Z,21.20
2019-06-27T02:24:29.677Z,21.20
2019-06-27T02:26:59.019Z,21.20
2019-06-27T02:29:28.393Z,21.00
2019-06-27T02:31:57.748Z,20.90
2019-06-27T02:34:27.128Z,20.90
2019-06-27T02:36:56.470Z,20.90
2019-06-27T02:39:25.844Z,21.00
2019-06-27T02:41:55.205Z,21.00
2019-06-27T02:44:24.580Z,21.10
2019-06-27T02:46:54.175Z,21.10
2019-06-27T02:49:23.520Z,21.10
2019-06-27T02:51:52.877Z,21.00
2019-06-27T02:54:22.226Z,21.00
2019-06-27T02:56:51.603Z,21.00
2019-06-27T02:59:20.969Z,20.90
2019-06-27T03:01:50.345Z,20.80
2019-06-27T03:04:19.717Z,20.70
2019-06-27T03:06:49.094Z,20.60
2019-06-27T03:09:18.449Z,20.60
2019-06-27T03:11:47.825Z,20.50
2019-06-27T03:14:17.195Z,20.50
2019-06-27T03:16:46.585Z,20.40
2019-06-27T03:19:15.944Z,20.40
2019-06-27T03:21:45.320Z,20.50
2019-06-27T03:24:14.686Z,20.50
2019-06-27T03:26:44.062Z,20.50
2019-06-27T03:29:13.414Z,20.50
2019-06-27T03:31:42.811Z,20.50
2019-06-27T03:34:12.167Z,20.50
2019-06-27T03:36:41.631Z,20.60
2019-06-27T03:39:10.982Z,20.60
2019-06-27T03:41:40.353Z,20.70
2019-06-27T03:44:09.719Z,20.90
2019-06-27T03:46:39.087Z,21.10
2019-06-27T03:49:08.442Z,21.30
2019-06-27T03:51:37.825Z,21.40
2019-06-27T03:54:07.460Z,21.50
2019-06-27T03:56:36.826Z,21.60
2019-06-27T03:59:13.210Z,21.80
2019-06-27T04:01:37.398Z,21.90
2019-06-27T04:04:06.713Z,22.00
2019-06-27T04:06:36.068Z,22.00
2019-06-27T04:09:06.529Z,22.00
2019-06-27T04:11:35.920Z,22.10
2019-06-27T04:14:05.285Z,22.10
2019-06-27T04:16:37.791Z,22.10
2019-06-27T04:19:07.889Z,22.20
2019-06-27T04:21:37.275Z,22.30
2019-06-27T04:24:06.614Z,22.40
2019-06-27T04:26:35.976Z,22.40
2019-06-27T04:29:05.418Z,22.40
2019-06-27T04:31:34.770Z,22.40
2019-06-27T04:34:04.108Z,22.60
2019-06-27T04:36:33.459Z,22.90
2019-06-27T04:39:02.799Z,23.30
2019-06-27T04:41:32.148Z,23.60
2019-06-27T04:44:01.489Z,23.80
2019-06-27T04:46:30.842Z,23.90
2019-06-27T04:49:00.165Z,24.00
2019-06-27T04:51:29.521Z,24.00
2019-06-27T04:53:58.846Z,24.20
2019-06-27T04:56:28.195Z,24.40
2019-06-27T04:58:57.526Z,24.70
2019-06-27T05:01:26.889Z,24.80
2019-06-27T05:03:56.216Z,24.80
2019-06-27T05:06:25.569Z,24.80
2019-06-27T05:08:54.909Z,25.00
2019-06-27T05:11:24.271Z,25.00
2019-06-27T05:13:53.595Z,24.90
2019-06-27T05:16:22.965Z,24.90
2019-06-27T05:18:52.297Z,24.80
2019-06-27T05:21:21.647Z,24.60
2019-06-27T05:23:50.972Z,24.40
2019-06-27T05:26:20.335Z,24.40
2019-06-27T05:28:49.868Z,24.60
2019-06-27T05:31:19.197Z,25.20
2019-06-27T05:33:48.532Z,26.20
2019-06-27T05:36:17.877Z,27.60
2019-06-27T05:38:47.208Z,27.50
2019-06-27T05:41:16.714Z,26.90
2019-06-27T05:43:46.042Z,26.90
2019-06-27T05:46:15.394Z,26.70
2019-06-27T05:48:44.775Z,26.40
2019-06-27T05:51:14.127Z,26.20
2019-06-27T05:53:45.635Z,26.00
2019-06-27T05:56:14.446Z,25.80
2019-06-27T05:58:43.775Z,26.30
2019-06-27T06:01:13.131Z,27.70
2019-06-27T06:03:42.456Z,29.40
2019-06-27T06:06:11.806Z,31.00
2019-06-27T06:08:41.136Z,31.90
2019-06-27T06:11:10.487Z,32.20
2019-06-27T06:13:39.819Z,32.80
2019-06-27T06:16:09.185Z,33.20
2019-06-27T06:18:38.563Z,33.60
2019-06-27T06:21:08.158Z,33.70
2019-06-27T06:23:37.647Z,33.90
2019-06-27T06:26:07.020Z,34.30
2019-06-27T06:28:36.467Z,34.60
2019-06-27T06:31:05.791Z,34.40
2019-06-27T06:33:35.144Z,33.80
2019-06-27T06:36:04.463Z,33.30
2019-06-27T06:38:33.804Z,33.20
2019-06-27T06:41:03.136Z,33.30
2019-06-27T06:43:32.479Z,33.60
2019-06-27T06:46:01.808Z,33.60
2019-06-27T06:48:31.163Z,33.50
2019-06-27T06:51:00.490Z,33.30
2019-06-27T06:53:29.835Z,33.10
2019-06-27T06:55:59.171Z,33.00
2019-06-27T06:58:28.523Z,33.10
2019-06-27T07:01:01.956Z,33.20
2019-06-27T07:03:28.864Z,33.20
2019-06-27T07:05:58.176Z,33.20
2019-06-27T07:08:27.523Z,33.00
2019-06-27T07:10:56.846Z,32.80
2019-06-27T07:13:26.199Z,32.80
2019-06-27T07:15:55.547Z,32.60
2019-06-27T07:18:24.895Z,32.70
2019-06-27T07:20:54.219Z,32.60
2019-06-27T07:23:23.575Z,32.40
2019-06-27T07:25:52.907Z,32.30
2019-06-27T07:28:22.257Z,32.30
2019-06-27T07:30:51.595Z,32.40
2019-06-27T07:33:20.942Z,32.60
2019-06-27T07:35:50.269Z,32.90
2019-06-27T07:38:19.614Z,33.10
2019-06-27T07:40:48.948Z,33.10
2019-06-27T07:43:18.526Z,33.20
2019-06-27T07:45:47.843Z,33.20
2019-06-27T07:48:17.195Z,33.40
2019-06-27T07:50:46.531Z,33.60
2019-06-27T07:53:15.880Z,33.70
2019-06-27T07:55:45.220Z,33.90
2019-06-27T07:58:14.607Z,33.70
2019-06-27T08:00:43.966Z,33.50
2019-06-27T08:03:13.339Z,33.30
2019-06-27T08:05:42.646Z,33.10
2019-06-27T08:08:11.999Z,33.30
2019-06-27T08:10:41.331Z,33.60
2019-06-27T08:13:10.679Z,33.70
2019-06-27T08:15:40.039Z,33.80
2019-06-27T08:18:09.397Z,33.70
2019-06-27T08:20:38.731Z,33.50
2019-06-27T08:23:08.084Z,33.60
2019-06-27T08:25:37.428Z,33.70
2019-06-27T08:28:06.779Z,33.70
2019-06-27T08:30:36.198Z,33.80
2019-06-27T08:33:05.551Z,34.00
2019-06-27T08:35:34.876Z,34.10
2019-06-27T08:38:04.240Z,34.30
2019-06-27T08:40:33.567Z,34.60
2019-06-27T08:43:02.976Z,34.60
2019-06-27T08:45:32.243Z,34.10
2019-06-27T08:48:01.591Z,34.00
2019-06-27T08:50:31.141Z,34.10
2019-06-27T08:53:01.590Z,34.10
2019-06-27T08:55:31.105Z,34.30
2019-06-27T08:58:00.459Z,34.30
2019-06-27T09:00:29.794Z,34.30
2019-06-27T09:02:59.143Z,34.50
2019-06-27T09:05:28.480Z,34.40
2019-06-27T09:07:57.894Z,34.20
2019-06-27T09:10:27.256Z,34.70
2019-06-27T09:12:56.612Z,34.90
2019-06-27T09:15:26.034Z,35.30
2019-06-27T09:17:55.406Z,35.60
2019-06-27T09:20:24.763Z,35.80
2019-06-27T09:22:54.091Z,36.10
2019-06-27T09:25:23.444Z,36.20
2019-06-27T09:27:52.779Z,36.40
2019-06-27T09:30:22.231Z,36.40
2019-06-27T09:32:51.555Z,36.60
2019-06-27T09:35:20.909Z,36.50
2019-06-27T09:37:50.235Z,36.50
2019-06-27T09:40:20.597Z,36.30
2019-06-27T09:42:49.923Z,36.20
2019-06-27T09:45:19.671Z,36.20
2019-06-27T09:47:49.003Z,35.80
2019-06-27T09:50:21.542Z,35.40
2019-06-27T09:52:49.735Z,35.40
2019-06-27T09:55:20.596Z,35.70
2019-06-27T09:57:49.875Z,35.90
2019-06-27T10:00:20.039Z,35.90
2019-06-27T10:02:49.363Z,36.00
2019-06-27T10:05:18.732Z,36.30
2019-06-27T10:07:48.043Z,35.70
2019-06-27T10:10:18.102Z,35.60
2019-06-27T10:12:47.427Z,35.40
2019-06-27T10:15:16.975Z,35.40
2019-06-27T10:17:46.327Z,35.30
2019-06-27T10:20:16.792Z,35.20
2019-06-27T10:22:46.161Z,35.40
2019-06-27T10:25:15.470Z,35.80
2019-06-27T10:27:44.800Z,36.20
2019-06-27T10:30:16.064Z,36.40
2019-06-27T10:32:58.603Z,36.30
2019-06-27T10:35:16.389Z,35.90
2019-06-27T10:37:45.710Z,35.90
2019-06-27T10:40:15.265Z,36.30
2019-06-27T10:42:44.582Z,36.50
2019-06-27T10:45:13.927Z,36.70
2019-06-27T10:47:43.255Z,37.00
2019-06-27T10:50:12.898Z,37.00
2019-06-27T10:52:42.227Z,36.80
2019-06-27T10:55:11.675Z,36.80
2019-06-27T10:57:41.009Z,36.60
2019-06-27T11:00:11.770Z,36.10
2019-06-27T11:02:41.119Z,35.60
2019-06-27T11:05:10.686Z,35.30
2019-06-27T11:07:41.163Z,35.40
2019-06-27T11:10:11.014Z,35.70
2019-06-27T11:12:40.322Z,36.30
2019-06-27T11:15:10.278Z,36.30
2019-06-27T11:17:39.631Z,36.10
2019-06-27T11:20:09.083Z,36.30
2019-06-27T11:22:38.427Z,36.70
2019-06-27T11:25:07.875Z,36.90
2019-06-27T11:27:37.216Z,37.10
2019-06-27T11:30:07.061Z,37.20
2019-06-27T11:32:36.350Z,37.20
2019-06-27T11:35:06.084Z,37.30
2019-06-27T11:37:35.428Z,37.30
2019-06-27T11:40:05.512Z,36.40
2019-06-27T11:42:34.834Z,36.50
2019-06-27T11:45:04.370Z,36.80
2019-06-27T11:47:34.733Z,37.10
2019-06-27T11:50:04.296Z,37.20
2019-06-27T11:52:33.603Z,37.50
2019-06-27T11:55:02.960Z,37.50
2019-06-27T11:57:32.287Z,37.30
2019-06-27T12:00:01.741Z,37.00
2019-06-27T12:02:31.062Z,37.00
2019-06-27T12:05:00.410Z,37.10
2019-06-27T12:07:29.745Z,37.10
2019-06-27T12:09:59.103Z,36.90
2019-06-27T12:12:28.453Z,37.00
2019-06-27T12:14:57.792Z,37.10
2019-06-27T12:17:27.148Z,37.30
2019-06-27T12:19:56.495Z,37.30
2019-06-27T12:22:25.823Z,37.20
2019-06-27T12:24:55.183Z,37.20
2019-06-27T12:27:24.519Z,37.10
2019-06-27T12:29:53.875Z,37.20
2019-06-27T12:32:23.187Z,37.30
2019-06-27T12:34:52.547Z,37.40
2019-06-27T12:37:21.880Z,37.20
2019-06-27T12:39:51.227Z,37.10
2019-06-27T12:42:32.135Z,36.90
2019-06-27T12:44:51.563Z,36.60
2019-06-27T12:47:20.883Z,36.40
2019-06-27T12:50:02.257Z,36.30
2019-06-27T12:52:21.203Z,36.10
2019-06-27T12:54:50.955Z,36.00
2019-06-27T12:57:20.291Z,36.10
2019-06-27T12:59:49.639Z,36.00
2019-06-27T13:02:18.974Z,35.90
2019-06-27T13:04:48.291Z,35.80
2019-06-27T13:07:17.639Z,35.70
2019-06-27T13:09:46.971Z,35.70
2019-06-27T13:12:16.326Z,35.60
2019-06-27T13:14:45.654Z,35.50
2019-06-27T13:17:15.023Z,35.70
2019-06-27T13:19:44.348Z,35.70
2019-06-27T13:22:13.708Z,35.50
2019-06-27T13:24:43.022Z,35.60
2019-06-27T13:27:12.371Z,35.70
2019-06-27T13:29:41.728Z,35.70
2019-06-27T13:32:11.339Z,35.60
2019-06-27T13:34:41.263Z,35.30
2019-06-27T13:37:10.739Z,35.30
2019-06-27T13:39:40.092Z,35.30
2019-06-27T13:42:09.439Z,35.50
2019-06-27T13:44:38.756Z,35.50
2019-06-27T13:47:08.117Z,35.30
2019-06-27T13:49:37.441Z,35.20
2019-06-27T13:52:06.788Z,35.10
2019-06-27T13:54:36.115Z,35.00
2019-06-27T13:57:05.460Z,35.00
2019-06-27T13:59:34.791Z,34.90
2019-06-27T14:02:04.156Z,34.70
2019-06-27T14:04:33.476Z,34.60
2019-06-27T14:07:02.879Z,34.50
2019-06-27T14:09:32.219Z,34.30
2019-06-27T14:12:01.568Z,34.20
2019-06-27T14:14:30.888Z,34.10
2019-06-27T14:17:00.265Z,34.10
2019-06-27T14:19:29.611Z,34.10
2019-06-27T14:21:59.051Z,34.00
2019-06-27T14:24:28.403Z,33.80
2019-06-27T14:26:57.751Z,33.60
2019-06-27T14:29:27.084Z,33.60
2019-06-27T14:31:56.427Z,33.50
2019-06-27T14:34:25.757Z,33.60
2019-06-27T14:36:55.106Z,33.50
2019-06-27T14:39:24.479Z,33.30
2019-06-27T14:41:53.826Z,33.20
2019-06-27T14:44:23.179Z,33.10
2019-06-27T14:46:52.529Z,33.10
2019-06-27T14:49:21.868Z,33.00
2019-06-27T14:51:51.215Z,33.00
2019-06-27T14:54:20.551Z,33.10
2019-06-27T14:56:49.904Z,33.10
2019-06-27T14:59:19.243Z,33.20
2019-06-27T15:01:48.629Z,33.10
2019-06-27T15:04:17.946Z,32.90
2019-06-27T15:06:47.291Z,32.80
2019-06-27T15:09:16.629Z,32.60
2019-06-27T15:11:45.984Z,32.40
2019-06-27T15:14:15.328Z,32.30
2019-06-27T15:16:44.683Z,32.10
2019-06-27T15:19:14.015Z,31.90
2019-06-27T15:21:43.395Z,31.90
2019-06-27T15:24:12.848Z,31.90
2019-06-27T15:26:42.279Z,31.80
2019-06-27T15:29:11.622Z,31.70
2019-06-27T15:31:40.979Z,31.60
2019-06-27T15:34:10.357Z,31.60
2019-06-27T15:36:39.695Z,31.50
2019-06-27T15:39:11.825Z,31.40
2019-06-27T15:41:40.021Z,31.40
2019-06-27T15:44:09.348Z,31.30
2019-06-27T15:46:38.777Z,31.30
2019-06-27T15:49:08.136Z,31.20
2019-06-27T15:51:37.510Z,31.00
2019-06-27T15:54:07.267Z,30.80
2019-06-27T15:56:36.569Z,30.80
2019-06-27T15:59:05.950Z,30.70
2019-06-27T16:01:35.266Z,30.50
2019-06-27T16:04:04.615Z,30.50
2019-06-27T16:06:34.029Z,30.40
2019-06-27T16:09:03.367Z,30.20
2019-06-27T16:11:32.693Z,30.00
2019-06-27T16:14:02.046Z,29.90
2019-06-27T16:16:31.391Z,29.80
2019-06-27T16:19:00.743Z,29.70
2019-06-27T16:21:30.064Z,29.60
2019-06-27T16:23:59.411Z,29.50
2019-06-27T16:26:28.739Z,29.40
2019-06-27T16:28:58.092Z,29.30
2019-06-27T16:31:27.423Z,29.30
2019-06-27T16:33:57.582Z,29.20
2019-06-27T16:36:26.839Z,29.20
2019-06-27T16:38:56.187Z,29.10
2019-06-27T16:41:25.511Z,29.00
2019-06-27T16:43:55.109Z,29.00
2019-06-27T16:46:24.444Z,28.90
2019-06-27T16:48:53.791Z,28.80
2019-06-27T16:51:23.111Z,28.60
2019-06-27T16:53:52.471Z,28.50
2019-06-27T16:56:21.792Z,28.40
2019-06-27T16:58:51.144Z,28.30
2019-06-27T17:01:20.479Z,28.20
2019-06-27T17:03:49.832Z,28.20
2019-06-27T17:06:19.167Z,28.20
2019-06-27T17:08:48.518Z,28.10
2019-06-27T17:11:17.840Z,28.00
2019-06-27T17:13:47.195Z,27.90
2019-06-27T17:16:16.547Z,27.80
2019-06-27T17:18:45.947Z,27.80
2019-06-27T17:21:15.264Z,27.70
2019-06-27T17:23:44.618Z,27.70
2019-06-27T17:26:13.943Z,27.60
2019-06-27T17:28:43.292Z,27.50
2019-06-27T17:31:12.619Z,27.30
2019-06-27T17:33:41.958Z,27.10
2019-06-27T17:36:11.280Z,27.00
2019-06-27T17:38:40.634Z,26.90
2019-06-27T17:41:09.956Z,26.80
2019-06-27T17:43:41.369Z,26.70
2019-06-27T17:46:10.286Z,26.50
2019-06-27T17:48:39.638Z,26.40
2019-06-27T17:51:08.958Z,26.30
2019-06-27T17:53:38.311Z,26.20
2019-06-27T17:56:07.639Z,26.10
2019-06-27T17:58:37.006Z,26.00
2019-06-27T18:01:16.286Z,25.90
2019-06-27T18:03:45.556Z,25.80
2019-06-27T18:06:14.883Z,25.60
2019-06-27T18:08:44.231Z,25.50
2019-06-27T18:11:13.571Z,25.40
2019-06-27T18:13:42.928Z,25.30
2019-06-27T18:16:12.288Z,25.20
2019-06-27T18:18:41.607Z,25.10
2019-06-27T18:21:10.961Z,24.90
2019-06-27T18:23:40.292Z,24.80
2019-06-27T18:26:09.648Z,24.70
2019-06-27T18:28:38.983Z,24.60
2019-06-27T18:31:08.327Z,24.50
2019-06-27T18:33:37.653Z,24.40
2019-06-27T18:36:07.004Z,24.30
2019-06-27T18:38:36.335Z,24.10
2019-06-27T18:41:05.680Z,24.00
2019-06-27T18:43:35.004Z,23.90
2019-06-27T18:46:04.419Z,23.70
2019-06-27T18:48:33.751Z,23.60
2019-06-27T18:51:03.100Z,23.50
2019-06-27T18:53:32.431Z,23.40
2019-06-27T18:56:01.783Z,23.30
2019-06-27T18:58:31.111Z,23.20
2019-06-27T19:01:00.489Z,23.10
2019-06-27T19:03:29.800Z,23.10
2019-06-27T19:05:59.139Z,23.00
2019-06-27T19:08:28.463Z,22.90
2019-06-27T19:10:57.881Z,22.70
2019-06-27T19:13:27.140Z,22.60
2019-06-27T19:15:56.781Z,22.50
2019-06-27T19:18:44.767Z,22.40
2019-06-27T19:21:19.488Z,22.30
2019-06-27T19:24:00.812Z,22.30
2019-06-27T19:26:30.167Z,22.30
2019-06-27T19:28:59.487Z,22.30
2019-06-27T19:31:28.838Z,22.30
2019-06-27T19:33:58.168Z,22.40
2019-06-27T19:36:27.517Z,22.40
2019-06-27T19:38:56.850Z,22.50
2019-06-27T19:41:26.196Z,22.50
2019-06-27T19:43:55.527Z,22.50
2019-06-27T19:46:24.875Z,22.50
2019-06-27T19:48:54.199Z,22.40
2019-06-27T19:51:23.551Z,22.30
2019-06-27T19:53:52.885Z,21.70
2019-06-27T19:56:22.227Z,21.20
2019-06-27T19:58:51.773Z,20.90
2019-06-27T20:01:21.107Z,20.70
2019-06-27T20:03:50.676Z,20.60
2019-06-27T20:06:20.243Z,20.50
2019-06-27T20:08:49.560Z,20.50
2019-06-27T20:11:18.889Z,20.40
2019-06-27T20:13:48.239Z,20.30
2019-06-27T20:16:17.583Z,20.20
2019-06-27T20:18:46.953Z,20.10
2019-06-27T20:21:16.339Z,20.00
2019-06-27T20:23:45.703Z,20.00
2019-06-27T20:26:15.027Z,19.90
2019-06-27T20:28:44.379Z,19.70
2019-06-27T20:31:13.707Z,19.60
2019-06-27T20:33:43.075Z,19.50
2019-06-27T20:36:12.405Z,19.40
2019-06-27T20:38:41.763Z,19.30
2019-06-27T20:41:11.094Z,19.30
2019-06-27T20:43:40.455Z,19.20
2019-06-27T20:46:09.779Z,19.10
2019-06-27T20:48:39.141Z,19.10
2019-06-27T20:51:08.469Z,19.20
2019-06-27T20:53:37.827Z,19.30
2019-06-27T20:56:07.158Z,19.30
2019-06-27T20:58:36.511Z,19.20
2019-06-27T21:01:06.119Z,19.10
2019-06-27T21:03:35.473Z,19.00
2019-06-27T21:06:04.837Z,19.00
2019-06-27T21:08:47.184Z,19.10
2019-06-27T21:11:05.176Z,19.10
2019-06-27T21:13:34.519Z,19.10
2019-06-27T21:16:03.859Z,19.00
2019-06-27T21:18:33.216Z,18.70
2019-06-27T21:21:02.551Z,18.60
2019-06-27T21:23:31.915Z,18.50
2019-06-27T21:26:01.251Z,18.40
2019-06-27T21:28:30.610Z,18.30
2019-06-27T21:30:59.939Z,18.20
2019-06-27T21:33:29.267Z,18.10
2019-06-27T21:35:58.642Z,18.00
2019-06-27T21:38:27.972Z,17.80
2019-06-27T21:40:57.328Z,17.70
2019-06-27T21:43:26.672Z,17.70
2019-06-27T21:45:56.035Z,17.60
2019-06-27T21:48:25.584Z,17.60
2019-06-27T21:50:54.917Z,17.60
2019-06-27T21:53:24.244Z,17.50
2019-06-27T21:55:53.595Z,17.50
2019-06-27T21:58:22.915Z,17.50
2019-06-27T22:00:52.774Z,17.50
2019-06-27T22:03:22.099Z,17.50
2019-06-27T22:05:51.451Z,17.30
2019-06-27T22:08:20.778Z,17.20
2019-06-27T22:10:50.127Z,17.20
2019-06-27T22:13:19.457Z,17.20
2019-06-27T22:15:48.831Z,17.00
2019-06-27T22:18:18.158Z,16.80
2019-06-27T22:20:47.543Z,16.60
2019-06-27T22:23:16.871Z,16.60
2019-06-27T22:25:46.223Z,16.60
2019-06-27T22:28:15.547Z,16.60
2019-06-27T22:30:44.907Z,16.50
2019-06-27T22:33:14.232Z,16.30
2019-06-27T22:35:43.579Z,16.20
2019-06-27T22:38:30.475Z,16.10
2019-06-27T22:41:17.737Z,16.10
2019-06-27T22:44:05.031Z,16.10
2019-06-27T22:46:51.974Z,16.10
2019-06-27T22:49:20.448Z,16.10
2019-06-27T22:52:07.855Z,16.10
2019-06-27T22:54:39.000Z,16.10
2019-06-27T22:57:08.351Z,16.10
2019-06-27T22:59:37.680Z,16.10
2019-06-27T23:02:07.023Z,16.20
2019-06-27T23:04:36.351Z,16.20
2019-06-27T23:07:05.791Z,16.10
2019-06-27T23:09:35.116Z,16.10
2019-06-27T23:12:04.568Z,15.90
2019-06-27T23:14:33.897Z,15.70
2019-06-27T23:17:03.279Z,15.60
2019-06-27T23:19:32.609Z,15.60
2019-06-27T23:22:01.999Z,15.70
2019-06-27T23:24:31.319Z,15.80
2019-06-27T23:27:00.660Z,15.80
2019-06-27T23:29:29.987Z,15.90
2019-06-27T23:31:59.344Z,15.80
2019-06-27T23:34:28.655Z,15.70
2019-06-27T23:36:58.007Z,15.60
2019-06-27T23:39:27.384Z,15.40
2019-06-27T23:41:56.687Z,15.20
2019-06-27T23:44:26.006Z,14.90
2019-06-27T23:46:55.575Z,14.80
2019-06-27T23:49:24.903Z,14.80
2019-06-27T23:51:54.254Z,14.90
2019-06-27T23:54:23.612Z,14.90
2019-06-27T23:56:53.185Z,14.90
2019-06-27T23:59:22.440Z,14.90
